sensor_id;sensor_type;location;lat;lon;timestamp;P1;durP1;ratioP1;P2;durP2;ratioP2
9689;SDS011;4884;42.614;23.340;2022-08-19T00:01:39;6.57;;;5.97;;
9689;SDS011;4884;42.614;23.340;2022-08-19T00:04:08;6.70;;;6.10;;
9689;SDS011;4884;42.614;23.340;2022-08-19T00:06:36;6.57;;;6.07;;
9689;SDS011;4884;42.614;23.340;2022-08-19T00:09:03;7.80;;;5.93;;
9689;SDS011;4884;42.614;23.340;2022-08-19T00:11:29;5.53;;;5.13;;
9689;SDS011;4884;42.614;23.340;2022-08-19T00:13:55;5.90;;;5.50;;
9689;SDS011;4884;42.614;23.340;2022-08-19T00:16:22;6.90;;;6.23;;
9689;SDS011;4884;42.614;23.340;2022-08-19T00:18:49;6.20;;;5.70;;
9689;SDS011;4884;42.614;23.340;2022-08-19T00:21:15;7.03;;;6.43;;
9689;SDS011;4884;42.614;23.340;2022-08-19T00:23:41;6.10;;;5.60;;
9689;SDS011;4884;42.614;23.340;2022-08-19T00:26:08;6.77;;;6.17;;
9689;SDS011;4884;42.614;23.340;2022-08-19T00:28:34;9.03;;;5.73;;
9689;SDS011;4884;42.614;23.340;2022-08-19T00:31:01;6.17;;;5.70;;
9689;SDS011;4884;42.614;23.340;2022-08-19T00:33:29;6.17;;;5.67;;
9689;SDS011;4884;42.614;23.340;2022-08-19T00:35:58;5.57;;;5.10;;
9689;SDS011;4884;42.614;23.340;2022-08-19T00:38:29;5.70;;;5.30;;
9689;SDS011;4884;42.614;23.340;2022-08-19T00:40:55;6.33;;;5.73;;
9689;SDS011;4884;42.614;23.340;2022-08-19T00:43:22;6.83;;;6.00;;
9689;SDS011;4884;42.614;23.340;2022-08-19T00:45:49;7.03;;;6.43;;
9689;SDS011;4884;42.614;23.340;2022-08-19T00:48:15;6.00;;;5.50;;
9689;SDS011;4884;42.614;23.340;2022-08-19T00:50:42;6.33;;;5.83;;
9689;SDS011;4884;42.614;23.340;2022-08-19T00:53:09;6.00;;;5.50;;
9689;SDS011;4884;42.614;23.340;2022-08-19T00:55:36;5.93;;;5.43;;
9689;SDS011;4884;42.614;23.340;2022-08-19T00:58:05;6.37;;;5.77;;
9689;SDS011;4884;42.614;23.340;2022-08-19T01:00:35;5.57;;;5.17;;
9689;SDS011;4884;42.614;23.340;2022-08-19T01:03:06;6.17;;;5.67;;
9689;SDS011;4884;42.614;23.340;2022-08-19T01:05:36;5.97;;;5.37;;
9689;SDS011;4884;42.614;23.340;2022-08-19T01:08:04;5.63;;;5.23;;
9689;SDS011;4884;42.614;23.340;2022-08-19T01:10:31;6.37;;;5.87;;
9689;SDS011;4884;42.614;23.340;2022-08-19T01:13:01;6.30;;;5.70;;
9689;SDS011;4884;42.614;23.340;2022-08-19T01:15:30;6.47;;;5.87;;
9689;SDS011;4884;42.614;23.340;2022-08-19T01:18:00;6.00;;;5.50;;
9689;SDS011;4884;42.614;23.340;2022-08-19T01:20:29;5.70;;;5.20;;
9689;SDS011;4884;42.614;23.340;2022-08-19T01:22:56;5.47;;;5.00;;
9689;SDS011;4884;42.614;23.340;2022-08-19T01:25:28;6.00;;;5.50;;
9689;SDS011;4884;42.614;23.340;2022-08-19T01:27:56;8.23;;;5.93;;
9689;SDS011;4884;42.614;23.340;2022-08-19T01:30:27;6.60;;;5.57;;
9689;SDS011;4884;42.614;23.340;2022-08-19T01:32:56;6.87;;;6.27;;
9689;SDS011;4884;42.614;23.340;2022-08-19T01:35:23;6.20;;;5.60;;
9689;SDS011;4884;42.614;23.340;2022-08-19T01:37:52;6.77;;;6.17;;
9689;SDS011;4884;42.614;23.340;2022-08-19T01:40:20;9.87;;;6.50;;
9689;SDS011;4884;42.614;23.340;2022-08-19T01:42:49;5.93;;;5.50;;
9689;SDS011;4884;42.614;23.340;2022-08-19T01:45:15;9.13;;;6.13;;
9689;SDS011;4884;42.614;23.340;2022-08-19T01:47:42;6.40;;;5.83;;
9689;SDS011;4884;42.614;23.340;2022-08-19T01:50:08;6.67;;;6.07;;
9689;SDS011;4884;42.614;23.340;2022-08-19T01:52:36;5.80;;;5.30;;
9689;SDS011;4884;42.614;23.340;2022-08-19T01:55:03;6.17;;;5.60;;
9689;SDS011;4884;42.614;23.340;2022-08-19T01:57:30;5.60;;;5.10;;
9689;SDS011;4884;42.614;23.340;2022-08-19T01:59:56;6.00;;;5.40;;
9689;SDS011;4884;42.614;23.340;2022-08-19T02:02:21;6.97;;;5.67;;
9689;SDS011;4884;42.614;23.340;2022-08-19T02:04:47;5.60;;;5.20;;
9689;SDS011;4884;42.614;23.340;2022-08-19T02:07:13;6.20;;;5.70;;
9689;SDS011;4884;42.614;23.340;2022-08-19T02:09:38;5.83;;;5.40;;
9689;SDS011;4884;42.614;23.340;2022-08-19T02:12:04;6.03;;;5.43;;
9689;SDS011;4884;42.614;23.340;2022-08-19T02:14:33;6.47;;;5.97;;
9689;SDS011;4884;42.614;23.340;2022-08-19T02:16:59;6.63;;;6.03;;
9689;SDS011;4884;42.614;23.340;2022-08-19T02:19:26;5.57;;;5.10;;
9689;SDS011;4884;42.614;23.340;2022-08-19T02:21:51;5.43;;;4.93;;
9689;SDS011;4884;42.614;23.340;2022-08-19T02:24:17;5.90;;;5.30;;
9689;SDS011;4884;42.614;23.340;2022-08-19T02:26:42;5.80;;;5.30;;
9689;SDS011;4884;42.614;23.340;2022-08-19T02:29:08;7.93;;;5.57;;
9689;SDS011;4884;42.614;23.340;2022-08-19T02:31:33;6.20;;;5.60;;
9689;SDS011;4884;42.614;23.340;2022-08-19T02:33:59;5.50;;;5.00;;
9689;SDS011;4884;42.614;23.340;2022-08-19T02:36:25;6.50;;;5.00;;
9689;SDS011;4884;42.614;23.340;2022-08-19T02:38:51;5.57;;;5.17;;
9689;SDS011;4884;42.614;23.340;2022-08-19T02:41:18;7.03;;;5.43;;
9689;SDS011;4884;42.614;23.340;2022-08-19T02:43:46;6.27;;;5.77;;
9689;SDS011;4884;42.614;23.340;2022-08-19T02:46:20;5.80;;;5.20;;
9689;SDS011;4884;42.614;23.340;2022-08-19T02:48:51;6.03;;;5.57;;
9689;SDS011;4884;42.614;23.340;2022-08-19T02:51:20;6.43;;;5.80;;
9689;SDS011;4884;42.614;23.340;2022-08-19T02:53:47;6.40;;;5.80;;
9689;SDS011;4884;42.614;23.340;2022-08-19T02:56:13;6.07;;;5.57;;
9689;SDS011;4884;42.614;23.340;2022-08-19T02:58:39;5.97;;;5.47;;
9689;SDS011;4884;42.614;23.340;2022-08-19T03:01:06;6.27;;;5.77;;
9689;SDS011;4884;42.614;23.340;2022-08-19T03:03:32;6.00;;;5.50;;
9689;SDS011;4884;42.614;23.340;2022-08-19T03:06:08;6.07;;;5.53;;
9689;SDS011;4884;42.614;23.340;2022-08-19T03:08:36;6.97;;;6.27;;
9689;SDS011;4884;42.614;23.340;2022-08-19T03:11:02;6.83;;;5.73;;
9689;SDS011;4884;42.614;23.340;2022-08-19T03:13:29;6.57;;;6.07;;
9689;SDS011;4884;42.614;23.340;2022-08-19T03:15:54;6.93;;;6.23;;
9689;SDS011;4884;42.614;23.340;2022-08-19T03:18:20;5.33;;;4.93;;
9689;SDS011;4884;42.614;23.340;2022-08-19T03:20:47;6.17;;;5.57;;
9689;SDS011;4884;42.614;23.340;2022-08-19T03:23:14;6.37;;;5.80;;
9689;SDS011;4884;42.614;23.340;2022-08-19T03:25:43;6.27;;;5.27;;
9689;SDS011;4884;42.614;23.340;2022-08-19T03:28:10;5.90;;;5.40;;
9689;SDS011;4884;42.614;23.340;2022-08-19T03:30:37;5.87;;;5.37;;
9689;SDS011;4884;42.614;23.340;2022-08-19T03:33:04;7.93;;;5.83;;
9689;SDS011;4884;42.614;23.340;2022-08-19T03:35:30;7.67;;;4.87;;
9689;SDS011;4884;42.614;23.340;2022-08-19T03:37:55;5.37;;;4.87;;
9689;SDS011;4884;42.614;23.340;2022-08-19T03:40:21;6.17;;;5.00;;
9689;SDS011;4884;42.614;23.340;2022-08-19T03:42:47;5.93;;;5.37;;
9689;SDS011;4884;42.614;23.340;2022-08-19T03:45:12;5.27;;;4.87;;
9689;SDS011;4884;42.614;23.340;2022-08-19T03:47:37;7.20;;;5.37;;
9689;SDS011;4884;42.614;23.340;2022-08-19T03:50:03;9.23;;;6.23;;
9689;SDS011;4884;42.614;23.340;2022-08-19T03:52:29;5.83;;;5.33;;
9689;SDS011;4884;42.614;23.340;2022-08-19T03:54:55;5.33;;;4.93;;
9689;SDS011;4884;42.614;23.340;2022-08-19T03:57:20;7.07;;;4.80;;
9689;SDS011;4884;42.614;23.340;2022-08-19T03:59:46;9.30;;;5.70;;
9689;SDS011;4884;42.614;23.340;2022-08-19T04:02:12;7.37;;;5.50;;
9689;SDS011;4884;42.614;23.340;2022-08-19T04:04:39;8.93;;;5.83;;
9689;SDS011;4884;42.614;23.340;2022-08-19T04:07:06;5.47;;;4.97;;
9689;SDS011;4884;42.614;23.340;2022-08-19T04:09:34;10.03;;;9.03;;
9689;SDS011;4884;42.614;23.340;2022-08-19T04:12:01;7.67;;;5.87;;
9689;SDS011;4884;42.614;23.340;2022-08-19T04:14:30;6.80;;;6.30;;
9689;SDS011;4884;42.614;23.340;2022-08-19T04:16:57;6.80;;;6.20;;
9689;SDS011;4884;42.614;23.340;2022-08-19T04:19:24;7.37;;;6.77;;
9689;SDS011;4884;42.614;23.340;2022-08-19T04:21:52;6.77;;;6.03;;
9689;SDS011;4884;42.614;23.340;2022-08-19T04:24:19;6.83;;;6.13;;
9689;SDS011;4884;42.614;23.340;2022-08-19T04:26:46;7.33;;;6.53;;
9689;SDS011;4884;42.614;23.340;2022-08-19T04:29:14;6.80;;;6.20;;
9689;SDS011;4884;42.614;23.340;2022-08-19T04:31:49;9.47;;;7.33;;
9689;SDS011;4884;42.614;23.340;2022-08-19T04:34:17;9.10;;;8.10;;
9689;SDS011;4884;42.614;23.340;2022-08-19T04:36:47;9.00;;;8.03;;
9689;SDS011;4884;42.614;23.340;2022-08-19T04:39:16;8.13;;;7.53;;
9689;SDS011;4884;42.614;23.340;2022-08-19T04:41:46;8.37;;;7.47;;
9689;SDS011;4884;42.614;23.340;2022-08-19T04:44:34;7.57;;;6.87;;
9689;SDS011;4884;42.614;23.340;2022-08-19T04:47:01;7.20;;;6.50;;
9689;SDS011;4884;42.614;23.340;2022-08-19T04:49:30;7.80;;;7.00;;
9689;SDS011;4884;42.614;23.340;2022-08-19T04:51:56;8.37;;;7.63;;
9689;SDS011;4884;42.614;23.340;2022-08-19T04:54:22;8.77;;;7.33;;
9689;SDS011;4884;42.614;23.340;2022-08-19T04:56:50;7.50;;;6.90;;
9689;SDS011;4884;42.614;23.340;2022-08-19T04:59:19;7.87;;;6.80;;
9689;SDS011;4884;42.614;23.340;2022-08-19T05:01:46;8.03;;;7.30;;
9689;SDS011;4884;42.614;23.340;2022-08-19T05:04:15;7.43;;;6.83;;
9689;SDS011;4884;42.614;23.340;2022-08-19T05:06:44;9.77;;;8.63;;
9689;SDS011;4884;42.614;23.340;2022-08-19T05:09:12;11.60;;;9.20;;
9689;SDS011;4884;42.614;23.340;2022-08-19T05:11:38;9.23;;;7.37;;
9689;SDS011;4884;42.614;23.340;2022-08-19T05:14:04;11.33;;;8.07;;
9689;SDS011;4884;42.614;23.340;2022-08-19T05:16:31;7.90;;;7.27;;
9689;SDS011;4884;42.614;23.340;2022-08-19T05:18:56;8.50;;;7.80;;
9689;SDS011;4884;42.614;23.340;2022-08-19T05:21:41;9.00;;;7.17;;
9689;SDS011;4884;42.614;23.340;2022-08-19T05:24:25;8.47;;;7.67;;
9689;SDS011;4884;42.614;23.340;2022-08-19T05:26:51;9.23;;;8.27;;
9689;SDS011;4884;42.614;23.340;2022-08-19T05:29:19;9.27;;;8.37;;
9689;SDS011;4884;42.614;23.340;2022-08-19T05:31:46;8.30;;;7.60;;
9689;SDS011;4884;42.614;23.340;2022-08-19T05:34:16;8.90;;;8.00;;
9689;SDS011;4884;42.614;23.340;2022-08-19T05:36:45;8.33;;;7.53;;
9689;SDS011;4884;42.614;23.340;2022-08-19T05:39:11;8.63;;;7.90;;
9689;SDS011;4884;42.614;23.340;2022-08-19T05:41:41;9.33;;;8.43;;
9689;SDS011;4884;42.614;23.340;2022-08-19T05:44:28;8.57;;;7.63;;
9689;SDS011;4884;42.614;23.340;2022-08-19T05:46:56;7.87;;;7.20;;
9689;SDS011;4884;42.614;23.340;2022-08-19T05:49:26;7.57;;;6.97;;
9689;SDS011;4884;42.614;23.340;2022-08-19T05:51:52;7.43;;;6.73;;
9689;SDS011;4884;42.614;23.340;2022-08-19T05:54:20;7.57;;;6.77;;
9689;SDS011;4884;42.614;23.340;2022-08-19T05:56:47;7.10;;;6.40;;
9689;SDS011;4884;42.614;23.340;2022-08-19T05:59:15;7.50;;;6.78;;
9689;SDS011;4884;42.614;23.340;2022-08-19T06:01:42;7.10;;;6.53;;
9689;SDS011;4884;42.614;23.340;2022-08-19T06:04:10;7.40;;;6.80;;
9689;SDS011;4884;42.614;23.340;2022-08-19T06:06:36;9.20;;;5.70;;
9689;SDS011;4884;42.614;23.340;2022-08-19T06:09:02;8.13;;;6.65;;
9689;SDS011;4884;42.614;23.340;2022-08-19T06:11:48;6.90;;;5.95;;
9689;SDS011;4884;42.614;23.340;2022-08-19T06:14:20;11.43;;;6.30;;
9689;SDS011;4884;42.614;23.340;2022-08-19T06:16:48;13.45;;;7.63;;
9689;SDS011;4884;42.614;23.340;2022-08-19T06:19:17;9.65;;;6.63;;
9689;SDS011;4884;42.614;23.340;2022-08-19T06:21:45;10.98;;;6.13;;
9689;SDS011;4884;42.614;23.340;2022-08-19T06:24:13;6.47;;;5.78;;
9689;SDS011;4884;42.614;23.340;2022-08-19T06:26:41;7.63;;;6.20;;
9689;SDS011;4884;42.614;23.340;2022-08-19T06:29:09;10.30;;;8.02;;
9689;SDS011;4884;42.614;23.340;2022-08-19T06:31:40;10.40;;;7.40;;
9689;SDS011;4884;42.614;23.340;2022-08-19T06:34:09;9.93;;;7.18;;
9689;SDS011;4884;42.614;23.340;2022-08-19T06:36:37;13.48;;;6.97;;
9689;SDS011;4884;42.614;23.340;2022-08-19T06:39:08;8.82;;;7.13;;
9689;SDS011;4884;42.614;23.340;2022-08-19T06:41:36;8.40;;;6.80;;
9689;SDS011;4884;42.614;23.340;2022-08-19T06:44:03;14.65;;;7.70;;
9689;SDS011;4884;42.614;23.340;2022-08-19T06:46:30;16.98;;;6.93;;
9689;SDS011;4884;42.614;23.340;2022-08-19T06:48:55;9.10;;;6.70;;
9689;SDS011;4884;42.614;23.340;2022-08-19T06:51:22;11.85;;;6.93;;
9689;SDS011;4884;42.614;23.340;2022-08-19T06:53:49;8.57;;;7.70;;
9689;SDS011;4884;42.614;23.340;2022-08-19T06:56:18;12.13;;;7.68;;
9689;SDS011;4884;42.614;23.340;2022-08-19T06:58:47;12.70;;;7.53;;
9689;SDS011;4884;42.614;23.340;2022-08-19T07:01:15;15.82;;;7.63;;
9689;SDS011;4884;42.614;23.340;2022-08-19T07:03:41;10.02;;;6.88;;
9689;SDS011;4884;42.614;23.340;2022-08-19T07:06:07;7.57;;;6.63;;
9689;SDS011;4884;42.614;23.340;2022-08-19T07:08:37;14.10;;;7.43;;
9689;SDS011;4884;42.614;23.340;2022-08-19T07:11:09;7.60;;;7.00;;
9689;SDS011;4884;42.614;23.340;2022-08-19T07:13:37;11.98;;;8.07;;
9689;SDS011;4884;42.614;23.340;2022-08-19T07:16:03;7.50;;;6.53;;
9689;SDS011;4884;42.614;23.340;2022-08-19T07:18:30;9.02;;;7.22;;
9689;SDS011;4884;42.614;23.340;2022-08-19T07:21:10;9.07;;;7.50;;
9689;SDS011;4884;42.614;23.340;2022-08-19T07:23:37;10.85;;;7.38;;
9689;SDS011;4884;42.614;23.340;2022-08-19T07:26:12;8.48;;;7.28;;
9689;SDS011;4884;42.614;23.340;2022-08-19T07:28:40;7.35;;;6.65;;
9689;SDS011;4884;42.614;23.340;2022-08-19T07:31:09;7.05;;;6.22;;
9689;SDS011;4884;42.614;23.340;2022-08-19T07:33:37;9.35;;;6.45;;
9689;SDS011;4884;42.614;23.340;2022-08-19T07:36:04;11.00;;;6.63;;
9689;SDS011;4884;42.614;23.340;2022-08-19T07:38:30;13.60;;;6.78;;
9689;SDS011;4884;42.614;23.340;2022-08-19T07:40:56;7.72;;;6.60;;
9689;SDS011;4884;42.614;23.340;2022-08-19T07:43:22;7.15;;;6.45;;
9689;SDS011;4884;42.614;23.340;2022-08-19T07:45:50;9.07;;;6.43;;
9689;SDS011;4884;42.614;23.340;2022-08-19T07:48:17;7.45;;;6.75;;
9689;SDS011;4884;42.614;23.340;2022-08-19T07:50:43;9.38;;;6.40;;
9689;SDS011;4884;42.614;23.340;2022-08-19T07:53:08;9.65;;;7.05;;
9689;SDS011;4884;42.614;23.340;2022-08-19T07:55:34;9.23;;;7.03;;
9689;SDS011;4884;42.614;23.340;2022-08-19T07:57:59;9.80;;;6.85;;
9689;SDS011;4884;42.614;23.340;2022-08-19T08:00:25;7.80;;;6.93;;
9689;SDS011;4884;42.614;23.340;2022-08-19T08:02:51;13.63;;;7.22;;
9689;SDS011;4884;42.614;23.340;2022-08-19T08:05:17;8.85;;;7.03;;
9689;SDS011;4884;42.614;23.340;2022-08-19T08:08:01;11.85;;;7.22;;
9689;SDS011;4884;42.614;23.340;2022-08-19T08:10:46;8.07;;;6.00;;
9689;SDS011;4884;42.614;23.340;2022-08-19T08:13:11;9.23;;;7.75;;
9689;SDS011;4884;42.614;23.340;2022-08-19T08:15:37;9.52;;;7.03;;
9689;SDS011;4884;42.614;23.340;2022-08-19T08:18:03;9.10;;;6.05;;
9689;SDS011;4884;42.614;23.340;2022-08-19T08:20:29;6.88;;;6.18;;
9689;SDS011;4884;42.614;23.340;2022-08-19T08:22:55;6.60;;;6.00;;
9689;SDS011;4884;42.614;23.340;2022-08-19T08:25:38;7.15;;;6.25;;
9689;SDS011;4884;42.614;23.340;2022-08-19T08:28:04;11.07;;;6.07;;
9689;SDS011;4884;42.614;23.340;2022-08-19T08:30:30;9.07;;;6.20;;
9689;SDS011;4884;42.614;23.340;2022-08-19T08:32:58;5.80;;;5.05;;
9689;SDS011;4884;42.614;23.340;2022-08-19T08:35:24;7.97;;;6.07;;
9689;SDS011;4884;42.614;23.340;2022-08-19T08:37:51;7.75;;;6.15;;
9689;SDS011;4884;42.614;23.340;2022-08-19T08:42:57;10.75;;;6.38;;
9689;SDS011;4884;42.614;23.340;2022-08-19T08:45:28;5.85;;;4.90;;
9689;SDS011;4884;42.614;23.340;2022-08-19T08:47:55;6.85;;;5.25;;
9689;SDS011;4884;42.614;23.340;2022-08-19T08:50:38;8.68;;;5.53;;
9689;SDS011;4884;42.614;23.340;2022-08-19T08:53:07;10.35;;;5.57;;
9689;SDS011;4884;42.614;23.340;2022-08-19T08:55:42;9.82;;;5.43;;
9689;SDS011;4884;42.614;23.340;2022-08-19T08:58:12;8.35;;;6.03;;
9689;SDS011;4884;42.614;23.340;2022-08-19T09:00:45;9.93;;;5.15;;
9689;SDS011;4884;42.614;23.340;2022-08-19T09:03:20;5.47;;;4.72;;
9689;SDS011;4884;42.614;23.340;2022-08-19T09:05:59;8.50;;;4.97;;
9689;SDS011;4884;42.614;23.340;2022-08-19T09:10:59;8.90;;;4.82;;
9689;SDS011;4884;42.614;23.340;2022-08-19T09:13:41;4.72;;;4.28;;
9689;SDS011;4884;42.614;23.340;2022-08-19T09:16:28;6.13;;;4.43;;
9689;SDS011;4884;42.614;23.340;2022-08-19T09:18:55;8.75;;;4.93;;
9689;SDS011;4884;42.614;23.340;2022-08-19T09:21:24;6.30;;;5.18;;
9689;SDS011;4884;42.614;23.340;2022-08-19T09:23:51;6.85;;;5.45;;
9689;SDS011;4884;42.614;23.340;2022-08-19T09:26:17;4.93;;;4.43;;
9689;SDS011;4884;42.614;23.340;2022-08-19T09:28:46;5.03;;;4.72;;
9689;SDS011;4884;42.614;23.340;2022-08-19T09:31:14;8.27;;;5.20;;
9689;SDS011;4884;42.614;23.340;2022-08-19T09:33:45;5.25;;;4.65;;
9689;SDS011;4884;42.614;23.340;2022-08-19T09:36:12;4.80;;;4.32;;
9689;SDS011;4884;42.614;23.340;2022-08-19T09:38:40;9.15;;;5.28;;
9689;SDS011;4884;42.614;23.340;2022-08-19T09:41:08;5.28;;;4.50;;
9689;SDS011;4884;42.614;23.340;2022-08-19T09:43:38;5.03;;;3.80;;
9689;SDS011;4884;42.614;23.340;2022-08-19T09:46:05;3.90;;;3.60;;
9689;SDS011;4884;42.614;23.340;2022-08-19T09:48:32;5.65;;;4.32;;
9689;SDS011;4884;42.614;23.340;2022-08-19T09:51:05;5.38;;;4.30;;
9689;SDS011;4884;42.614;23.340;2022-08-19T09:53:36;4.32;;;4.03;;
9689;SDS011;4884;42.614;23.340;2022-08-19T09:56:02;4.00;;;3.67;;
9689;SDS011;4884;42.614;23.340;2022-08-19T09:58:29;4.32;;;4.03;;
9689;SDS011;4884;42.614;23.340;2022-08-19T10:00:55;6.13;;;4.55;;
9689;SDS011;4884;42.614;23.340;2022-08-19T10:03:22;6.05;;;4.85;;
9689;SDS011;4884;42.614;23.340;2022-08-19T10:05:48;6.80;;;4.15;;
9689;SDS011;4884;42.614;23.340;2022-08-19T10:08:15;6.20;;;4.47;;
9689;SDS011;4884;42.614;23.340;2022-08-19T10:10:42;6.28;;;4.35;;
9689;SDS011;4884;42.614;23.340;2022-08-19T10:13:09;4.57;;;4.28;;
9689;SDS011;4884;42.614;23.340;2022-08-19T10:15:34;6.03;;;5.53;;
9689;SDS011;4884;42.614;23.340;2022-08-19T10:18:00;5.35;;;4.85;;
9689;SDS011;4884;42.614;23.340;2022-08-19T10:20:26;6.65;;;5.40;;
9689;SDS011;4884;42.614;23.340;2022-08-19T10:22:51;5.53;;;4.45;;
9689;SDS011;4884;42.614;23.340;2022-08-19T10:25:17;5.78;;;4.93;;
9689;SDS011;4884;42.614;23.340;2022-08-19T10:27:42;7.72;;;4.40;;
9689;SDS011;4884;42.614;23.340;2022-08-19T10:30:08;5.75;;;4.25;;
9689;SDS011;4884;42.614;23.340;2022-08-19T10:32:34;4.95;;;4.38;;
9689;SDS011;4884;42.614;23.340;2022-08-19T10:35:00;6.05;;;5.55;;
9689;SDS011;4884;42.614;23.340;2022-08-19T10:37:26;5.50;;;4.95;;
9689;SDS011;4884;42.614;23.340;2022-08-19T10:39:51;5.15;;;4.55;;
9689;SDS011;4884;42.614;23.340;2022-08-19T10:42:16;6.47;;;5.40;;
9689;SDS011;4884;42.614;23.340;2022-08-19T10:44:43;5.07;;;4.65;;
9689;SDS011;4884;42.614;23.340;2022-08-19T10:47:09;5.93;;;5.00;;
9689;SDS011;4884;42.614;23.340;2022-08-19T10:49:35;5.85;;;4.88;;
9689;SDS011;4884;42.614;23.340;2022-08-19T10:52:21;5.78;;;5.28;;
9689;SDS011;4884;42.614;23.340;2022-08-19T10:54:58;7.03;;;5.07;;
9689;SDS011;4884;42.614;23.340;2022-08-19T10:57:46;5.13;;;4.68;;
9689;SDS011;4884;42.614;23.340;2022-08-19T11:00:12;5.90;;;4.72;;
9689;SDS011;4884;42.614;23.340;2022-08-19T11:02:38;10.32;;;5.90;;
9689;SDS011;4884;42.614;23.340;2022-08-19T11:05:04;9.13;;;5.22;;
9689;SDS011;4884;42.614;23.340;2022-08-19T11:07:30;5.38;;;4.93;;
9689;SDS011;4884;42.614;23.340;2022-08-19T11:09:55;8.23;;;7.53;;
9689;SDS011;4884;42.614;23.340;2022-08-19T11:12:21;7.72;;;5.13;;
9689;SDS011;4884;42.614;23.340;2022-08-19T11:14:46;9.45;;;5.32;;
9689;SDS011;4884;42.614;23.340;2022-08-19T11:17:15;6.28;;;5.47;;
9689;SDS011;4884;42.614;23.340;2022-08-19T11:19:41;5.80;;;4.80;;
9689;SDS011;4884;42.614;23.340;2022-08-19T11:22:08;5.93;;;5.30;;
9689;SDS011;4884;42.614;23.340;2022-08-19T11:24:34;5.78;;;5.18;;
9689;SDS011;4884;42.614;23.340;2022-08-19T11:27:01;5.45;;;4.88;;
9689;SDS011;4884;42.614;23.340;2022-08-19T11:29:32;5.30;;;4.90;;
9689;SDS011;4884;42.614;23.340;2022-08-19T11:31:59;5.80;;;5.35;;
9689;SDS011;4884;42.614;23.340;2022-08-19T11:34:28;6.15;;;5.10;;
9689;SDS011;4884;42.614;23.340;2022-08-19T11:36:54;5.60;;;5.20;;
9689;SDS011;4884;42.614;23.340;2022-08-19T11:39:23;9.27;;;5.03;;
9689;SDS011;4884;42.614;23.340;2022-08-19T11:41:50;6.03;;;5.53;;
9689;SDS011;4884;42.614;23.340;2022-08-19T11:44:15;6.68;;;6.00;;
9689;SDS011;4884;42.614;23.340;2022-08-19T11:46:42;5.97;;;5.40;;
9689;SDS011;4884;42.614;23.340;2022-08-19T11:49:11;8.25;;;5.35;;
9689;SDS011;4884;42.614;23.340;2022-08-19T11:51:37;7.05;;;6.13;;
9689;SDS011;4884;42.614;23.340;2022-08-19T11:54:04;6.38;;;5.88;;
9689;SDS011;4884;42.614;23.340;2022-08-19T11:56:31;5.97;;;5.28;;
9689;SDS011;4884;42.614;23.340;2022-08-19T11:58:57;5.32;;;4.82;;
9689;SDS011;4884;42.614;23.340;2022-08-19T12:01:23;5.88;;;5.15;;
9689;SDS011;4884;42.614;23.340;2022-08-19T12:03:50;5.90;;;5.30;;
9689;SDS011;4884;42.614;23.340;2022-08-19T12:06:22;5.68;;;5.28;;
9689;SDS011;4884;42.614;23.340;2022-08-19T12:08:55;6.35;;;5.07;;
9689;SDS011;4884;42.614;23.340;2022-08-19T12:11:22;5.85;;;4.93;;
9689;SDS011;4884;42.614;23.340;2022-08-19T12:13:48;5.75;;;5.30;;
9689;SDS011;4884;42.614;23.340;2022-08-19T12:16:16;7.13;;;5.47;;
9689;SDS011;4884;42.614;23.340;2022-08-19T12:18:43;6.63;;;5.97;;
9689;SDS011;4884;42.614;23.340;2022-08-19T12:21:11;6.45;;;5.63;;
9689;SDS011;4884;42.614;23.340;2022-08-19T12:23:40;6.10;;;5.45;;
9689;SDS011;4884;42.614;23.340;2022-08-19T12:26:08;6.13;;;5.63;;
9689;SDS011;4884;42.614;23.340;2022-08-19T12:28:34;5.75;;;5.32;;
9689;SDS011;4884;42.614;23.340;2022-08-19T12:31:00;6.15;;;5.60;;
9689;SDS011;4884;42.614;23.340;2022-08-19T12:33:26;6.15;;;5.65;;
9689;SDS011;4884;42.614;23.340;2022-08-19T12:35:53;7.45;;;5.32;;
9689;SDS011;4884;42.614;23.340;2022-08-19T12:38:18;7.43;;;5.50;;
9689;SDS011;4884;42.614;23.340;2022-08-19T12:40:45;8.82;;;6.22;;
9689;SDS011;4884;42.614;23.340;2022-08-19T12:43:12;6.75;;;6.20;;
9689;SDS011;4884;42.614;23.340;2022-08-19T12:45:38;6.55;;;5.95;;
9689;SDS011;4884;42.614;23.340;2022-08-19T12:48:04;12.93;;;11.90;;
9689;SDS011;4884;42.614;23.340;2022-08-19T12:50:30;7.95;;;7.25;;
9689;SDS011;4884;42.614;23.340;2022-08-19T12:52:55;8.02;;;6.22;;
9689;SDS011;4884;42.614;23.340;2022-08-19T12:55:21;7.38;;;5.78;;
9689;SDS011;4884;42.614;23.340;2022-08-19T12:57:47;6.35;;;5.20;;
9689;SDS011;4884;42.614;23.340;2022-08-19T13:00:16;6.35;;;5.72;;
9689;SDS011;4884;42.614;23.340;2022-08-19T13:02:46;6.93;;;6.32;;
9689;SDS011;4884;42.614;23.340;2022-08-19T13:05:16;6.35;;;5.45;;
9689;SDS011;4884;42.614;23.340;2022-08-19T13:07:48;6.22;;;5.72;;
9689;SDS011;4884;42.614;23.340;2022-08-19T13:10:16;6.07;;;5.57;;
9689;SDS011;4884;42.614;23.340;2022-08-19T13:12:44;6.00;;;5.50;;
9689;SDS011;4884;42.614;23.340;2022-08-19T13:15:12;5.85;;;5.15;;
9689;SDS011;4884;42.614;23.340;2022-08-19T13:17:39;6.00;;;5.50;;
9689;SDS011;4884;42.614;23.340;2022-08-19T13:20:05;5.80;;;5.30;;
9689;SDS011;4884;42.614;23.340;2022-08-19T13:22:33;7.22;;;5.47;;
9689;SDS011;4884;42.614;23.340;2022-08-19T13:25:00;6.18;;;5.57;;
9689;SDS011;4884;42.614;23.340;2022-08-19T13:27:26;6.70;;;6.00;;
9689;SDS011;4884;42.614;23.340;2022-08-19T13:29:51;5.45;;;4.95;;
9689;SDS011;4884;42.614;23.340;2022-08-19T13:32:35;5.63;;;5.05;;
9689;SDS011;4884;42.614;23.340;2022-08-19T13:35:19;6.63;;;5.50;;
9689;SDS011;4884;42.614;23.340;2022-08-19T13:37:44;6.55;;;5.78;;
9689;SDS011;4884;42.614;23.340;2022-08-19T13:40:15;5.65;;;5.22;;
9689;SDS011;4884;42.614;23.340;2022-08-19T13:42:47;5.35;;;4.95;;
9689;SDS011;4884;42.614;23.340;2022-08-19T13:45:15;9.70;;;5.53;;
9689;SDS011;4884;42.614;23.340;2022-08-19T13:47:44;5.85;;;5.35;;
9689;SDS011;4884;42.614;23.340;2022-08-19T13:50:22;6.88;;;6.28;;
9689;SDS011;4884;42.614;23.340;2022-08-19T13:52:50;6.53;;;5.93;;
9689;SDS011;4884;42.614;23.340;2022-08-19T13:55:16;5.50;;;5.10;;
9689;SDS011;4884;42.614;23.340;2022-08-19T13:57:41;6.65;;;5.93;;
9689;SDS011;4884;42.614;23.340;2022-08-19T14:00:09;8.13;;;5.55;;
9689;SDS011;4884;42.614;23.340;2022-08-19T14:02:38;5.75;;;5.30;;
9689;SDS011;4884;42.614;23.340;2022-08-19T14:05:05;6.53;;;5.93;;
9689;SDS011;4884;42.614;23.340;2022-08-19T14:07:31;5.95;;;5.45;;
9689;SDS011;4884;42.614;23.340;2022-08-19T14:09:57;6.03;;;5.53;;
9689;SDS011;4884;42.614;23.340;2022-08-19T14:12:22;8.43;;;6.50;;
9689;SDS011;4884;42.614;23.340;2022-08-19T14:14:48;7.65;;;5.82;;
9689;SDS011;4884;42.614;23.340;2022-08-19T14:17:14;7.95;;;6.43;;
9689;SDS011;4884;42.614;23.340;2022-08-19T14:19:40;7.55;;;5.82;;
9689;SDS011;4884;42.614;23.340;2022-08-19T14:22:05;7.35;;;6.68;;
9689;SDS011;4884;42.614;23.340;2022-08-19T14:24:31;6.68;;;6.07;;
9689;SDS011;4884;42.614;23.340;2022-08-19T14:26:59;6.43;;;5.80;;
9689;SDS011;4884;42.614;23.340;2022-08-19T14:29:25;7.90;;;5.72;;
9689;SDS011;4884;42.614;23.340;2022-08-19T14:31:53;6.35;;;5.75;;
9689;SDS011;4884;42.614;23.340;2022-08-19T14:34:18;7.68;;;6.53;;
9689;SDS011;4884;42.614;23.340;2022-08-19T14:36:44;6.55;;;5.95;;
9689;SDS011;4884;42.614;23.340;2022-08-19T14:39:10;7.82;;;6.03;;
9689;SDS011;4884;42.614;23.340;2022-08-19T14:41:35;6.93;;;6.32;;
9689;SDS011;4884;42.614;23.340;2022-08-19T14:44:01;6.95;;;6.30;;
9689;SDS011;4884;42.614;23.340;2022-08-19T14:46:27;7.50;;;6.00;;
9689;SDS011;4884;42.614;23.340;2022-08-19T14:48:53;7.32;;;6.07;;
9689;SDS011;4884;42.614;23.340;2022-08-19T14:51:20;7.18;;;6.57;;
9689;SDS011;4884;42.614;23.340;2022-08-19T14:53:47;6.63;;;6.05;;
9689;SDS011;4884;42.614;23.340;2022-08-19T14:56:17;7.22;;;6.43;;
9689;SDS011;4884;42.614;23.340;2022-08-19T14:58:45;7.57;;;6.57;;
9689;SDS011;4884;42.614;23.340;2022-08-19T15:01:11;7.60;;;5.63;;
9689;SDS011;4884;42.614;23.340;2022-08-19T15:03:37;6.63;;;6.03;;
9689;SDS011;4884;42.614;23.340;2022-08-19T15:06:06;7.43;;;6.70;;
9689;SDS011;4884;42.614;23.340;2022-08-19T15:08:32;7.10;;;6.22;;
9689;SDS011;4884;42.614;23.340;2022-08-19T15:11:00;7.00;;;6.00;;